createdAt,value
2016-07-16T06:46:13.269Z,99557
2016-07-16T06:46:32.827Z,99562
2016-07-16T06:46:46.545Z,99551
2016-07-16T06:47:05.996Z,99557
2016-07-16T06:47:25.781Z,99557
2016-07-16T06:47:37.893Z,99549
2016-07-16T06:47:54.657Z,99551
2016-07-16T06:48:11.396Z,99557
2016-07-16T06:48:31.220Z,99551
2016-07-16T06:48:51.341Z,99565
2016-07-16T06:49:11.934Z,99557
2016-07-16T06:49:29.393Z,99562
2016-07-16T06:49:43.962Z,99557
2016-07-16T06:49:57.559Z,99562
2016-07-16T06:50:21.713Z,99567
2016-07-16T06:50:41.371Z,99554
2016-07-16T06:51:04.004Z,99554
2016-07-16T06:51:25.181Z,99567
2016-07-16T06:51:41.928Z,99567
2016-07-16T06:52:04.971Z,99562
2016-07-16T06:52:18.843Z,99557
2016-07-16T06:52:35.614Z,99557
2016-07-16T06:52:49.412Z,99554
2016-07-16T06:53:07.259Z,99557
2016-07-16T06:53:29.963Z,99562
2016-07-16T06:53:49.581Z,99557
2016-07-16T06:54:09.354Z,99554
2016-07-16T06:54:35.057Z,99562
2016-07-16T06:54:57.509Z,99565
2016-07-16T06:55:17.229Z,99557
2016-07-16T06:55:34.234Z,99554
2016-07-16T06:55:51.159Z,99557
2016-07-16T06:56:09.151Z,99562
2016-07-16T06:56:28.744Z,99554
2016-07-16T06:56:45.889Z,99562
2016-07-16T06:57:08.864Z,99554
2016-07-16T06:57:26.139Z,99554
2016-07-16T06:57:45.755Z,99564
2016-07-16T06:58:08.839Z,99557
2016-07-16T06:58:28.282Z,99557
2016-07-16T06:58:45.226Z,99554
2016-07-16T06:59:05.086Z,99557
2016-07-16T06:59:24.513Z,99548
2016-07-16T06:59:38.989Z,99545
2016-07-16T06:59:58.547Z,99551
2016-07-16T07:00:15.320Z,99545
2016-07-16T07:00:36.438Z,99554
2016-07-16T07:00:53.150Z,99548
2016-07-16T07:01:10.356Z,99551
2016-07-16T07:01:30.213Z,99554
2016-07-16T07:01:47.013Z,99540
2016-07-16T07:02:04.660Z,99551
2016-07-16T07:02:18.593Z,99537
2016-07-16T07:02:32.194Z,99557
2016-07-16T07:02:46.113Z,99543
2016-07-16T07:03:00.112Z,99562
2016-07-16T07:03:19.752Z,99551
2016-07-16T07:03:36.434Z,99542
2016-07-16T07:03:56.077Z,99554
2016-07-16T07:04:13.544Z,99542
2016-07-16T07:04:36.283Z,99548
2016-07-16T07:04:58.843Z,99551
2016-07-16T07:05:15.570Z,99548
2016-07-16T07:05:30.849Z,99551
2016-07-16T07:05:41.730Z,99551
2016-07-16T07:06:02.552Z,99554
2016-07-16T07:06:25.065Z,99551
2016-07-16T07:06:41.842Z,99542
2016-07-16T07:07:01.636Z,99540
2016-07-16T07:07:15.701Z,99545
2016-07-16T07:07:32.658Z,99542
2016-07-16T07:07:52.398Z,99548
2016-07-16T07:08:09.298Z,99554
2016-07-16T07:08:24.583Z,99548
2016-07-16T07:08:44.440Z,99564
2016-07-16T07:09:01.112Z,99548
2016-07-16T07:09:15.842Z,99542
2016-07-16T07:09:38.840Z,99551
2016-07-16T07:10:04.612Z,99561
2016-07-16T07:10:22.463Z,99551
2016-07-16T07:10:42.037Z,99561
2016-07-16T07:10:55.839Z,99556
2016-07-16T07:11:12.495Z,99564
2016-07-16T07:11:32.175Z,99556
2016-07-16T07:11:46.773Z,99556
2016-07-16T07:11:58.006Z,99556
2016-07-16T07:12:18.524Z,99564
2016-07-16T07:12:48.338Z,99556
2016-07-16T07:13:03.592Z,99561
2016-07-16T07:13:20.825Z,99564
2016-07-16T07:13:34.883Z,99567
2016-07-16T07:13:49.311Z,99564
2016-07-16T07:14:06.421Z,99567
2016-07-16T07:14:26.328Z,99554
2016-07-16T07:14:43.122Z,99556
2016-07-16T07:14:57.154Z,99573
2016-07-16T07:15:17.279Z,99561
2016-07-16T07:15:37.103Z,99556
2016-07-16T07:15:56.950Z,99556
2016-07-16T07:16:11.445Z,99561
2016-07-16T07:16:29.115Z,99564
2016-07-16T07:16:51.740Z,99564
2016-07-16T07:17:08.593Z,99553
2016-07-16T07:17:22.402Z,99553
2016-07-16T07:17:44.879Z,99553
2016-07-16T07:17:58.771Z,99551
2016-07-16T07:18:15.631Z,99551
2016-07-16T07:18:32.527Z,99556
2016-07-16T07:18:49.189Z,99553
2016-07-16T07:19:03.109Z,99561
2016-07-16T07:19:20.088Z,99556
2016-07-16T08:29:17.268Z,99544
2016-07-16T08:29:35.305Z,99544
2016-07-16T08:29:52.434Z,99538
2016-07-16T08:30:09.411Z,99535
2016-07-16T08:30:23.853Z,99538
2016-07-16T08:30:38.182Z,99535
2016-07-16T08:30:55.305Z,99547
2016-07-16T08:45:34.752Z,99546
2016-07-16T08:45:52.538Z,99524
2016-07-16T08:46:06.742Z,99524
2016-07-16T08:46:26.490Z,99524
2016-07-16T08:46:46.455Z,99535
2016-07-16T08:47:00.655Z,99529
2016-07-16T08:47:14.745Z,99526
2016-07-16T08:47:29.300Z,99521
2016-07-16T08:47:54.883Z,99538
2016-07-16T08:48:17.559Z,99529
2016-07-16T08:48:34.883Z,99532
2016-07-16T08:49:01.658Z,99529
2016-07-16T08:49:24.918Z,99524
2016-07-16T08:49:40.111Z,99535
2016-07-16T08:49:57.306Z,99532
2016-07-16T08:50:20.714Z,99532
2016-07-16T08:50:37.789Z,99526
2016-07-16T08:50:57.559Z,99526
2016-07-16T08:51:20.279Z,99524
2016-07-16T08:51:42.778Z,99535
2016-07-16T08:51:59.437Z,99532
2016-07-16T08:52:19.613Z,99524
2016-07-16T08:52:37.449Z,99532
2016-07-16T08:53:02.903Z,99535
2016-07-16T08:53:16.845Z,99532
2016-07-16T08:53:37.318Z,99532
2016-07-16T08:53:53.852Z,99529
2016-07-16T08:54:13.264Z,99526
2016-07-16T08:54:37.012Z,99526
2016-07-16T08:54:59.540Z,99526
2016-07-16T08:55:16.333Z,99526
2016-07-16T08:55:35.642Z,99526
2016-07-16T08:55:49.740Z,99526
2016-07-16T08:56:00.516Z,99521
2016-07-16T08:56:19.956Z,99526
2016-07-16T08:56:42.807Z,99526
2016-07-16T08:56:59.543Z,99532
2016-07-16T08:57:22.347Z,99521
2016-07-16T08:57:39.540Z,99529
2016-07-16T08:58:08.832Z,99532
2016-07-16T08:58:19.786Z,99518
2016-07-16T08:58:36.126Z,99524
2016-07-16T08:59:01.369Z,99526
2016-07-16T08:59:23.905Z,99529
2016-07-16T08:59:40.506Z,99538
2016-07-16T08:59:54.648Z,99523
2016-07-16T09:00:17.041Z,99523
2016-07-16T09:00:36.535Z,99532
2016-07-16T09:01:01.897Z,99529
2016-07-16T09:01:21.571Z,99529
2016-07-16T09:01:35.348Z,99518
2016-07-16T09:01:46.102Z,99532
2016-07-16T09:02:05.841Z,99526
2016-07-16T09:02:25.112Z,99526
2016-07-16T09:02:41.798Z,99515
2016-07-16T09:03:01.517Z,99529
2016-07-16T09:03:21.131Z,99526
2016-07-16T09:03:35.725Z,99526
2016-07-16T09:03:58.445Z,99529
2016-07-16T09:04:18.507Z,99529
2016-07-16T09:04:35.171Z,99526
2016-07-16T09:04:54.650Z,99523
2016-07-16T09:05:14.298Z,99521
2016-07-16T09:05:30.868Z,99526
2016-07-16T09:05:42.170Z,99526
2016-07-16T09:05:56.023Z,99523
2016-07-16T09:06:20.695Z,99521
2016-07-16T09:06:40.205Z,99526
2016-07-16T09:06:50.957Z,99529
2016-07-16T09:07:10.599Z,99526
2016-07-16T09:07:32.897Z,99529
2016-07-16T09:07:46.791Z,99538
2016-07-16T09:08:06.311Z,99529
2016-07-16T09:08:22.784Z,99526
2016-07-16T09:08:39.424Z,99532
2016-07-16T09:08:53.280Z,99529
2016-07-16T09:09:03.998Z,99529
2016-07-16T09:09:23.681Z,99540
2016-07-16T09:09:41.523Z,99540
2016-07-16T09:10:01.060Z,99532
2016-07-16T09:10:14.916Z,99535
2016-07-16T09:10:34.685Z,99538
2016-07-16T09:10:54.324Z,99543
2016-07-16T09:11:05.758Z,99541
2016-07-16T09:11:22.672Z,99538
2016-07-16T09:11:36.626Z,99543
2016-07-16T09:12:03.365Z,99541
2016-07-16T09:12:26.971Z,99527
2016-07-16T09:12:49.437Z,99535
2016-07-16T09:13:03.181Z,99538
2016-07-16T09:13:17.051Z,99538
2016-07-16T09:13:42.289Z,99535
2016-07-16T09:13:58.734Z,99538
2016-07-16T09:14:15.349Z,99538
2016-07-16T09:14:34.704Z,99541
2016-07-16T09:14:48.574Z,99529
2016-07-16T09:15:09.410Z,99549
2016-07-16T09:15:28.940Z,99535
2016-07-16T09:15:48.491Z,99543
2016-07-16T09:16:15.265Z,99538
2016-07-16T09:16:29.323Z,99543
2016-07-16T09:16:45.954Z,99543
2016-07-16T09:17:08.715Z,99543
2016-07-16T09:17:28.315Z,99535
2016-07-16T09:17:47.962Z,99540
2016-07-16T09:18:16.293Z,99552
2016-07-16T09:18:32.770Z,99540
2016-07-16T09:18:55.039Z,99537
2016-07-16T09:19:14.295Z,99546
2016-07-16T09:19:29.024Z,99532
2016-07-16T09:19:51.505Z,99529
2016-07-16T09:20:05.902Z,99543
2016-07-16T09:20:22.657Z,99529
2016-07-16T09:20:39.348Z,99537
2016-07-16T09:21:00.023Z,99546
2016-07-16T09:21:19.467Z,99546
2016-07-16T09:21:36.334Z,99534
2016-07-16T09:22:01.729Z,99532
2016-07-16T09:22:15.467Z,99540
2016-07-16T09:22:40.794Z,99540
2016-07-16T09:22:54.590Z,99532
2016-07-16T09:23:14.219Z,99540
2016-07-16T09:23:33.802Z,99543
2016-07-16T09:23:53.329Z,99537
2016-07-16T09:24:12.968Z,99540
2016-07-16T09:24:27.025Z,99537
2016-07-16T09:24:40.772Z,99543
2016-07-16T09:24:54.477Z,99540
2016-07-16T09:25:08.241Z,99543
2016-07-16T09:25:24.891Z,99543
2016-07-16T09:25:44.603Z,99546
2016-07-16T09:26:04.322Z,99540
2016-07-16T09:26:26.853Z,99549
2016-07-16T09:26:40.644Z,99543
2016-07-16T09:26:57.511Z,99543
2016-07-16T09:27:14.339Z,99535
2016-07-16T09:27:31.118Z,99540
2016-07-16T09:27:50.679Z,99540
2016-07-16T09:28:01.684Z,99543
2016-07-16T09:28:18.388Z,99543
2016-07-16T09:28:38.052Z,99543
2016-07-16T09:28:57.675Z,99537
2016-07-16T09:29:14.366Z,99554
2016-07-16T09:29:34.993Z,99543
2016-07-16T09:29:46.054Z,99543
2016-07-16T09:30:06.235Z,99537
2016-07-16T09:30:17.362Z,99546
2016-07-16T09:30:36.878Z,99549
2016-07-16T09:30:50.645Z,99551
2016-07-16T09:31:04.455Z,99540
2016-07-16T09:31:20.736Z,99549
2016-07-16T09:31:43.157Z,99543
2016-07-16T09:32:02.734Z,99549
2016-07-16T09:32:28.149Z,99543
2016-07-16T09:32:41.812Z,99549
2016-07-16T09:32:55.483Z,99543
2016-07-16T09:33:09.528Z,99543
2016-07-16T09:33:23.518Z,99540
2016-07-16T09:33:43.066Z,99546
2016-07-16T09:33:59.873Z,99549
2016-07-16T09:34:16.799Z,99546
2016-07-16T09:34:36.504Z,99543
2016-07-16T09:34:53.392Z,99543
2016-07-16T09:35:13.770Z,99546
2016-07-16T09:35:27.690Z,99548
2016-07-16T09:35:50.292Z,99540
2016-07-16T09:36:09.924Z,99534
2016-07-16T09:36:32.683Z,99543
2016-07-16T09:36:47.057Z,99543
2016-07-16T09:37:04.363Z,99540
2016-07-16T09:37:21.119Z,99537
2016-07-16T09:37:37.578Z,99546
2016-07-16T09:37:57.128Z,99537
2016-07-16T09:38:16.859Z,99537
2016-07-16T09:38:33.544Z,99540
2016-07-16T09:38:56.677Z,99540
2016-07-16T09:39:10.386Z,99534
2016-07-16T09:39:24.662Z,99537
2016-07-16T09:39:39.198Z,99545
2016-07-16T09:39:56.075Z,99543
2016-07-16T09:40:18.658Z,99528
2016-07-16T09:40:38.152Z,99528
2016-07-16T09:41:01.557Z,99534
2016-07-16T09:41:15.221Z,99528
2016-07-16T09:41:37.659Z,99528
2016-07-16T09:42:00.518Z,99540
2016-07-16T09:42:25.058Z,99537
2016-07-16T09:42:47.576Z,99537
2016-07-16T09:43:01.407Z,99531
2016-07-16T09:43:12.258Z,99534
2016-07-16T09:43:34.827Z,99531
2016-07-16T09:43:59.301Z,99543
2016-07-16T09:44:15.963Z,99534
2016-07-16T09:44:26.750Z,99534
2016-07-16T09:44:40.562Z,99537
2016-07-16T09:45:00.165Z,99537
2016-07-16T09:45:16.651Z,99534
2016-07-16T09:45:31.064Z,99531
2016-07-16T09:45:47.828Z,99526
2016-07-16T09:46:02.012Z,99534
2016-07-16T09:46:17.013Z,99531
2016-07-16T09:46:34.150Z,99531
2016-07-16T09:46:53.985Z,99534
2016-07-16T09:47:09.032Z,99531
2016-07-16T09:47:25.989Z,99537
2016-07-16T09:47:51.718Z,99528
2016-07-16T09:48:10.190Z,99537
2016-07-16T09:48:26.232Z,99531
2016-07-16T09:48:43.205Z,99534
2016-07-16T09:49:06.030Z,99537
2016-07-16T09:49:23.478Z,99526
2016-07-16T09:49:40.821Z,99531
2016-07-16T09:49:55.205Z,99537
2016-07-16T09:50:12.218Z,99528
2016-07-16T09:50:29.135Z,99528
2016-07-16T09:50:43.195Z,99531
2016-07-16T09:51:03.075Z,99531
2016-07-16T09:51:21.693Z,99520
2016-07-16T09:51:44.373Z,99526
2016-07-16T09:52:04.283Z,99523
2016-07-16T09:52:30.079Z,99525
2016-07-16T09:52:46.949Z,99528
2016-07-16T09:53:01.318Z,99528
2016-07-16T09:53:21.204Z,99528
2016-07-16T09:53:41.215Z,99525
2016-07-16T09:53:58.146Z,99531
2016-07-16T09:54:19.375Z,99520
2016-07-16T09:54:33.359Z,99534
2016-07-16T09:54:47.474Z,99528
2016-07-16T09:54:58.741Z,99523
2016-07-16T09:55:18.783Z,99525
2016-07-16T09:55:42.994Z,99520
2016-07-16T09:55:57.327Z,99520
2016-07-16T09:56:17.179Z,99517
2016-07-16T09:56:34.232Z,99528
2016-07-16T09:56:49.742Z,99534
2016-07-16T09:57:01.506Z,99523
2016-07-16T09:57:21.385Z,99520
2016-07-16T09:57:41.237Z,99517
2016-07-16T09:57:55.240Z,99520
2016-07-16T09:58:06.564Z,99520
2016-07-16T09:58:23.673Z,99520
2016-07-16T09:58:46.380Z,99520
2016-07-16T09:59:03.320Z,99514
2016-07-16T09:59:14.597Z,99517
2016-07-16T09:59:28.959Z,99528
2016-07-16T09:59:43.170Z,99528
2016-07-16T10:00:00.284Z,99528
2016-07-16T10:00:17.420Z,99517
2016-07-16T10:00:34.380Z,99522
2016-07-16T10:00:51.317Z,99528
2016-07-16T10:01:11.058Z,99517
2016-07-16T10:01:27.896Z,99514
2016-07-16T10:01:47.720Z,99520
2016-07-16T10:02:04.815Z,99520
2016-07-16T10:02:24.856Z,99531
2016-07-16T10:02:47.547Z,99522
2016-07-16T10:03:07.382Z,99528
2016-07-16T10:03:24.284Z,99514
2016-07-16T10:03:38.900Z,99520
2016-07-16T10:03:55.919Z,99517
2016-07-16T10:04:17.494Z,99520
2016-07-16T10:04:36.627Z,99517
2016-07-16T10:04:54.981Z,99511
2016-07-16T10:05:15.163Z,99505
2016-07-16T10:05:29.452Z,99517
2016-07-16T10:05:49.506Z,99508
2016-07-16T10:06:00.834Z,99508
2016-07-16T10:06:12.264Z,99514
2016-07-16T10:06:26.412Z,99514
2016-07-16T10:06:44.443Z,99511
2016-07-16T10:07:02.356Z,99505
2016-07-16T10:07:21.215Z,99522
2016-07-16T10:07:45.804Z,99517
2016-07-16T10:08:07.705Z,99508
2016-07-16T10:08:33.307Z,99514
2016-07-16T10:08:47.861Z,99519
2016-07-16T10:09:05.123Z,99519
2016-07-16T10:09:24.914Z,99519
2016-07-16T10:09:44.869Z,99508
2016-07-16T10:10:09.065Z,99511
2016-07-16T10:10:26.146Z,99511
2016-07-16T10:10:43.301Z,99508
2016-07-16T10:11:00.240Z,99505
2016-07-16T10:11:14.006Z,99517
2016-07-16T10:11:30.908Z,99514
2016-07-16T10:11:42.114Z,99508
2016-07-16T10:12:02.287Z,99502
2016-07-16T10:12:22.382Z,99508
2016-07-16T10:12:39.641Z,99514
2016-07-16T10:12:58.216Z,99517
2016-07-16T10:13:18.085Z,99508
2016-07-16T10:13:35.051Z,99525
2016-07-16T10:13:52.896Z,99505
2016-07-16T10:14:10.031Z,99520
2016-07-16T10:14:27.238Z,99514
2016-07-16T10:14:41.647Z,99514
2016-07-16T10:14:59.977Z,99514
2016-07-16T10:15:22.879Z,99519
2016-07-16T10:15:39.845Z,99514
2016-07-16T10:15:54.095Z,99502
2016-07-16T10:16:14.095Z,99502
2016-07-16T10:16:31.819Z,99499
2016-07-16T10:16:55.061Z,99505
2016-07-16T10:17:15.142Z,99502
2016-07-16T10:17:35.231Z,99514
2016-07-16T10:17:52.335Z,99508
2016-07-16T10:18:09.720Z,99519
2016-07-16T10:18:32.546Z,99508
2016-07-16T10:18:50.233Z,99502
2016-07-16T10:19:14.024Z,99516
2016-07-16T10:19:28.945Z,99505
2016-07-16T10:19:45.513Z,99502
2016-07-16T10:20:02.569Z,99511
2016-07-16T10:20:22.457Z,99505
2016-07-16T10:20:39.387Z,99508
2016-07-16T10:20:53.473Z,99511
2016-07-16T10:21:07.651Z,99511
2016-07-16T10:21:25.055Z,99502
2016-07-16T10:21:39.349Z,99508
2016-07-16T10:21:53.660Z,99505
2016-07-16T10:22:07.717Z,99513
2016-07-16T10:22:21.955Z,99499
2016-07-16T10:22:41.939Z,99502
2016-07-16T10:22:58.632Z,99499
2016-07-16T10:23:18.979Z,99505
2016-07-16T10:23:36.114Z,99499
2016-07-16T10:23:50.207Z,99502
2016-07-16T10:24:10.335Z,99499
2016-07-16T10:24:30.319Z,99505
2016-07-16T10:24:44.480Z,99510
2016-07-16T10:24:59.756Z,99496
2016-07-16T10:25:17.577Z,99505
2016-07-16T10:25:34.313Z,99502
2016-07-16T10:25:49.036Z,99499
2016-07-16T10:26:12.018Z,99507
2016-07-16T10:26:32.150Z,99505
2016-07-16T10:26:51.993Z,99507
2016-07-16T10:27:03.292Z,99496
2016-07-16T10:27:17.224Z,99496
2016-07-16T10:27:37.087Z,99505
2016-07-16T10:27:56.854Z,99488
2016-07-16T10:28:10.644Z,99511
2016-07-16T10:28:27.394Z,99491
2016-07-16T10:28:41.103Z,99491
2016-07-16T10:28:55.087Z,99499
2016-07-16T10:55:50.964Z,99468
2016-07-16T10:56:10.970Z,99468
2016-07-16T10:56:25.034Z,99468
2016-07-16T10:56:42.563Z,99465
2016-07-16T10:57:05.757Z,99468
2016-07-16T10:57:22.941Z,99473
2016-07-16T10:57:37.705Z,99454
2016-07-16T10:57:50.876Z,99468
2016-07-16T10:58:06.221Z,99463
2016-07-16T10:58:23.656Z,99468
2016-07-16T10:58:42.468Z,99465
2016-07-16T10:58:58.608Z,99468
2016-07-16T10:59:16.952Z,99460
2016-07-16T10:59:34.218Z,99465
2016-07-16T10:59:58.839Z,99465
2016-07-16T11:00:18.797Z,99457
2016-07-16T11:00:33.118Z,99463
2016-07-16T11:00:50.274Z,99465
2016-07-16T11:01:04.909Z,99465
2016-07-16T11:01:27.834Z,99463
2016-07-16T11:01:39.047Z,99468
2016-07-16T11:01:56.010Z,99463
2016-07-16T11:02:15.859Z,99465
2016-07-16T11:02:30.557Z,99460
2016-07-16T11:02:50.903Z,99468
2016-07-16T11:03:05.133Z,99462
2016-07-16T11:03:22.145Z,99457
2016-07-16T11:03:39.310Z,99463
2016-07-16T11:03:57.584Z,99457
2016-07-16T11:04:17.136Z,99463
2016-07-16T11:04:35.770Z,99470
2016-07-16T11:04:55.619Z,99457
2016-07-16T11:05:12.621Z,99470
2016-07-16T11:05:29.466Z,99460
2016-07-16T11:05:52.573Z,99454
2016-07-16T11:06:13.375Z,99454
2016-07-16T11:06:35.744Z,99448
2016-07-16T11:06:50.926Z,99451
2016-07-16T11:07:08.335Z,99460
2016-07-16T11:07:30.522Z,99462
2016-07-16T11:07:56.887Z,99468
2016-07-16T11:08:16.142Z,99462
2016-07-16T11:08:30.219Z,99459
2016-07-16T11:08:51.054Z,99462
2016-07-16T11:09:09.062Z,99465
2016-07-16T11:09:26.739Z,99468
2016-07-16T11:09:44.820Z,99462
2016-07-16T11:10:04.699Z,99465
2016-07-16T11:10:18.676Z,99465
2016-07-16T11:10:38.580Z,99468
2016-07-16T11:10:59.069Z,99457
2016-07-16T11:11:16.119Z,99462
2016-07-16T11:11:33.005Z,99460
2016-07-16T11:11:55.890Z,99462
2016-07-16T11:12:12.989Z,99454
2016-07-16T11:12:32.991Z,99459
2016-07-16T11:12:55.115Z,99454
2016-07-16T11:13:15.450Z,99454
2016-07-16T11:13:36.937Z,99451
2016-07-16T11:13:51.959Z,99448
2016-07-16T11:14:09.082Z,99451
2016-07-16T11:14:31.899Z,99451
2016-07-16T11:14:42.951Z,99448
2016-07-16T11:14:56.976Z,99440
2016-07-16T11:15:18.477Z,99451
2016-07-16T11:15:36.594Z,99448
2016-07-16T11:15:57.684Z,99445
2016-07-16T11:16:14.880Z,99457
2016-07-16T11:16:36.506Z,99457
2016-07-16T11:16:48.670Z,99445
2016-07-16T11:17:04.894Z,99451
2016-07-16T11:17:26.687Z,99445
2016-07-16T11:17:47.552Z,99451
2016-07-16T11:18:04.980Z,99448
2016-07-16T11:18:26.331Z,99442
2016-07-16T11:18:43.083Z,99448
2016-07-16T11:19:03.979Z,99448
2016-07-16T11:19:18.263Z,99448
2016-07-16T11:19:35.229Z,99440
2016-07-16T11:19:52.984Z,99440
2016-07-16T11:20:10.468Z,99448
2016-07-16T11:20:26.494Z,99451
2016-07-16T11:20:48.455Z,99451
2016-07-16T11:21:04.603Z,99446
2016-07-16T11:21:21.890Z,99448
2016-07-16T11:21:39.415Z,99443
2016-07-16T11:21:50.855Z,99451
2016-07-16T11:22:05.821Z,99445
2016-07-16T11:22:23.997Z,99454
2016-07-16T11:22:38.292Z,99454
2016-07-16T11:22:52.696Z,99457
2016-07-16T11:23:10.123Z,99445
2016-07-16T11:23:27.331Z,99440
2016-07-16T11:23:44.189Z,99440
2016-07-16T11:24:01.140Z,99451
2016-07-16T11:24:18.056Z,99451
2016-07-16T11:24:32.232Z,99454
2016-07-16T11:24:49.191Z,99445
2016-07-16T11:25:03.504Z,99448
2016-07-16T11:25:27.690Z,99457
2016-07-16T11:25:39.032Z,99442
2016-07-16T11:25:56.693Z,99445
2016-07-16T11:26:20.372Z,99442
2016-07-16T11:26:34.621Z,99439
2016-07-16T11:26:54.868Z,99439
2016-07-16T11:27:14.974Z,99448
2016-07-16T11:27:34.922Z,99451
2016-07-16T11:27:51.851Z,99445
2016-07-16T11:28:02.964Z,99451
2016-07-16T11:28:20.056Z,99439
2016-07-16T11:28:34.209Z,99442
2016-07-16T11:28:48.018Z,99448
2016-07-16T11:29:02.042Z,99453
2016-07-16T11:29:21.911Z,99442
2016-07-16T11:29:39.966Z,99456
2016-07-16T11:30:08.721Z,99442
2016-07-16T11:30:22.793Z,99448
2016-07-16T11:30:40.645Z,99428
2016-07-16T11:30:55.693Z,99439
2016-07-16T11:31:13.422Z,99445
2016-07-16T11:31:36.023Z,99448
2016-07-16T11:31:53.487Z,99445
2016-07-16T11:32:14.116Z,99436
2016-07-16T11:32:35.191Z,99445
2016-07-16T11:32:53.614Z,99436
2016-07-16T11:33:12.392Z,99434
2016-07-16T11:33:27.706Z,99434
2016-07-16T11:33:48.619Z,99439
2016-07-16T11:34:03.409Z,99431
2016-07-16T11:34:19.049Z,99434
2016-07-16T11:34:37.068Z,99436
2016-07-16T11:34:54.641Z,99436
2016-07-16T11:35:09.070Z,99436
2016-07-16T11:35:29.181Z,99425
2016-07-16T11:35:52.930Z,99434
2016-07-16T11:36:12.629Z,99434
2016-07-16T11:36:26.587Z,99431
2016-07-16T11:36:46.364Z,99422
2016-07-16T11:37:06.215Z,99428
2016-07-16T11:37:22.895Z,99431
2016-07-16T11:37:39.880Z,99431
2016-07-16T11:37:54.074Z,99428
2016-07-16T11:38:16.530Z,99422
2016-07-16T11:38:33.377Z,99419
2016-07-16T11:38:50.328Z,99422
2016-07-16T11:39:07.940Z,99428
2016-07-16T11:39:24.954Z,99422
2016-07-16T11:39:39.037Z,99425
2016-07-16T11:39:54.158Z,99431
2016-07-16T11:40:13.918Z,99428
2016-07-16T11:40:27.946Z,99439
2016-07-16T11:40:42.298Z,99430
2016-07-16T11:40:56.500Z,99430
2016-07-16T11:41:10.926Z,99433
2016-07-16T11:41:27.816Z,99425
2016-07-16T11:41:44.890Z,99422
2016-07-16T11:42:06.626Z,99419
2016-07-16T11:42:28.036Z,99413
2016-07-16T11:42:48.036Z,99425
2016-07-16T11:43:08.644Z,99427
2016-07-16T11:43:23.642Z,99416
2016-07-16T11:43:44.343Z,99427
2016-07-16T11:44:02.177Z,99424
2016-07-16T11:44:17.589Z,99422
2016-07-16T11:44:38.306Z,99430
2016-07-16T11:44:55.228Z,99427
2016-07-16T11:45:18.156Z,99422
2016-07-16T11:45:41.253Z,99427
2016-07-16T11:45:56.358Z,99413
2016-07-16T11:46:13.098Z,99419
2016-07-16T11:46:35.719Z,99427
2016-07-16T11:46:52.641Z,99422
2016-07-16T11:47:09.576Z,99422
2016-07-16T11:47:26.407Z,99422
2016-07-16T11:47:52.101Z,99410
2016-07-16T11:48:18.801Z,99430
2016-07-16T11:48:32.905Z,99419
2016-07-16T11:48:57.669Z,99416
2016-07-16T11:49:14.657Z,99413
2016-07-16T11:49:35.854Z,99416
2016-07-16T11:49:55.620Z,99405
2016-07-16T11:50:16.638Z,99419
2016-07-16T11:50:36.680Z,99410
2016-07-16T11:50:58.484Z,99413
2016-07-16T11:51:18.670Z,99405
2016-07-16T11:51:38.517Z,99410
2016-07-16T11:51:55.896Z,99405
2016-07-16T11:52:16.266Z,99407
2016-07-16T11:52:36.455Z,99407
2016-07-16T11:52:56.078Z,99407
2016-07-16T11:53:09.853Z,99396
2016-07-16T11:53:23.957Z,99402
2016-07-16T11:53:43.854Z,99404
2016-07-16T11:53:54.859Z,99410
2016-07-16T11:54:06.235Z,99407
2016-07-16T11:54:20.254Z,99422
2016-07-16T11:54:37.811Z,99416
2016-07-16T11:54:57.607Z,99404
2016-07-16T11:55:11.662Z,99416
2016-07-16T11:55:28.558Z,99407
2016-07-16T11:55:48.300Z,99407
2016-07-16T11:56:30.495Z,99407
2016-07-16T11:56:51.564Z,99410
2016-07-16T11:57:08.171Z,99404
2016-07-16T11:57:25.845Z,99416
2016-07-16T11:57:47.272Z,99402
2016-07-16T11:58:30.065Z,99410
2016-07-16T11:58:47.321Z,99402
2016-07-16T11:59:14.260Z,99407
2016-07-16T11:59:35.173Z,99399
2016-07-16T12:00:07.755Z,99405
2016-07-16T12:01:29.604Z,99396
2016-07-16T12:02:02.478Z,99405
2016-07-16T12:02:27.121Z,99399
2016-07-16T12:02:58.375Z,99402
2016-07-16T12:03:28.763Z,99402
2016-07-16T12:03:53.189Z,99402
2016-07-16T12:04:24.547Z,99399
2016-07-16T12:04:50.203Z,99408
2016-07-16T12:05:15.305Z,99396
2016-07-16T12:05:45.199Z,99396
2016-07-16T12:06:10.443Z,99402
2016-07-16T12:06:37.410Z,99393
2016-07-16T12:06:58.982Z,99408
2016-07-16T12:07:27.819Z,99402
2016-07-16T12:07:47.861Z,99402
2016-07-16T12:08:10.300Z,99399
2016-07-16T12:08:29.460Z,99396
2016-07-16T12:08:45.867Z,99394
2016-07-16T12:09:12.389Z,99402
2016-07-16T12:09:46.430Z,99399
2016-07-16T12:10:17.259Z,99388
2016-07-16T12:10:45.742Z,99396
2016-07-16T12:11:04.459Z,99394
2016-07-16T12:11:25.654Z,99394
2016-07-16T12:11:42.289Z,99399
2016-07-16T12:12:00.565Z,99388
2016-07-16T12:12:17.838Z,99393
2016-07-16T12:12:40.671Z,99393
2016-07-16T12:13:04.962Z,99390
2016-07-16T12:13:28.350Z,99399
2016-07-16T12:13:54.972Z,99396
2016-07-16T12:14:19.151Z,99393
2016-07-16T12:14:38.360Z,99396
2016-07-16T12:14:54.661Z,99390
2016-07-16T12:15:17.222Z,99398
2016-07-16T12:15:37.052Z,99396
2016-07-16T12:15:57.762Z,99396
2016-07-16T12:16:16.538Z,99384
2016-07-16T12:16:35.461Z,99387
2016-07-16T12:16:59.499Z,99396
2016-07-16T12:17:24.512Z,99393
2016-07-16T12:17:51.145Z,99390
2016-07-16T12:18:13.938Z,99390
2016-07-16T12:18:40.236Z,99393
2016-07-16T12:19:05.522Z,99390
2016-07-16T12:19:29.736Z,99396
2016-07-16T12:19:53.899Z,99393
2016-07-16T12:20:11.186Z,99390
2016-07-16T12:20:30.115Z,99384
2016-07-16T12:20:51.554Z,99390
2016-07-16T12:21:17.660Z,99390
2016-07-16T12:21:38.303Z,99393
2016-07-16T12:22:05.738Z,99387
2016-07-16T12:22:33.417Z,99384
2016-07-16T12:22:58.901Z,99379
2016-07-16T12:23:23.373Z,99384
2016-07-16T12:23:46.385Z,99370
2016-07-16T12:24:16.134Z,99381
2016-07-16T12:24:42.924Z,99378
2016-07-16T12:25:17.237Z,99370
2016-07-16T12:26:14.559Z,99378
2016-07-16T12:26:50.943Z,99372
2016-07-16T12:27:11.970Z,99387
2016-07-16T12:27:46.408Z,99375
2016-07-16T12:28:17.928Z,99375
2016-07-16T12:28:44.425Z,99384
2016-07-16T12:29:18.143Z,99381
2016-07-16T12:30:10.588Z,99369
2016-07-16T12:31:30.279Z,99383
2016-07-16T12:32:16.534Z,99378
2016-07-16T12:32:45.154Z,99378
2016-07-16T12:33:27.967Z,99375
2016-07-16T12:34:29.026Z,99378
2016-07-16T12:35:00.930Z,99378
2016-07-16T12:35:25.899Z,99383
2016-07-16T12:36:29.330Z,99383
2016-07-16T12:37:06.729Z,99380
2016-07-16T12:38:02.066Z,99383
2016-07-16T12:38:48.060Z,99381
2016-07-16T12:39:20.333Z,99381
2016-07-16T12:39:45.104Z,99378
2016-07-16T12:40:12.258Z,99381
2016-07-16T12:40:37.295Z,99372
2016-07-16T12:41:02.559Z,99381
2016-07-16T12:41:44.061Z,99372
2016-07-16T12:42:16.105Z,99384
2016-07-16T12:43:17.512Z,99378
2016-07-16T12:43:52.854Z,99375
2016-07-16T16:56:26.794Z,99271
2016-07-16T16:56:44.086Z,99259
2016-07-16T16:57:05.709Z,99268
2016-07-16T16:57:24.599Z,99271
2016-07-16T16:57:43.534Z,99268
2016-07-16T16:58:10.680Z,99271
2016-07-16T16:58:35.351Z,99265
2016-07-16T16:58:53.531Z,99265
2016-07-16T16:59:20.951Z,99265
2016-07-16T16:59:45.545Z,99259